createdAt,value
2017-05-26T00:03:00.893Z,48.00
2017-05-26T00:05:28.659Z,48.20
2017-05-26T00:07:55.299Z,48.60
2017-05-26T00:10:23.055Z,48.70
2017-05-26T00:12:50.605Z,49.30
2017-05-26T00:17:46.153Z,48.90
2017-05-26T00:22:41.152Z,49.00
2017-05-26T00:30:04.294Z,49.00
2017-05-26T00:35:00.086Z,48.90
2017-05-26T00:37:27.123Z,49.40
2017-05-26T00:39:54.888Z,49.40
2017-05-26T00:44:49.552Z,49.30
2017-05-26T00:49:44.599Z,49.60
2017-05-26T00:54:39.347Z,50.00
2017-05-26T00:57:07.093Z,50.30
2017-05-26T00:59:34.115Z,50.50
2017-05-26T01:02:01.498Z,50.40
2017-05-26T01:04:28.518Z,51.30
2017-05-26T01:06:56.335Z,50.30
2017-05-26T01:14:19.169Z,50.50
2017-05-26T01:16:46.187Z,51.70
2017-05-26T01:19:13.207Z,51.40
2017-05-26T01:21:40.251Z,51.70
2017-05-26T01:24:07.271Z,51.70
2017-05-26T01:26:34.387Z,52.10
2017-05-26T01:29:01.433Z,52.00
2017-05-26T01:31:28.978Z,52.30
2017-05-26T01:33:57.555Z,52.30
2017-05-26T01:36:25.397Z,51.90
2017-05-26T01:38:52.514Z,52.50
2017-05-26T01:43:47.471Z,51.40
2017-05-26T01:48:42.593Z,53.00
2017-05-26T01:51:09.996Z,52.30
2017-05-26T01:53:37.017Z,52.80
2017-05-26T01:56:04.769Z,52.20
2017-05-26T01:58:31.852Z,53.70
2017-05-26T02:00:58.869Z,52.00
2017-05-26T02:03:25.511Z,51.80
2017-05-26T02:05:52.558Z,52.70
2017-05-26T02:08:19.587Z,52.70
2017-05-26T02:15:43.343Z,51.90
2017-05-26T02:18:10.447Z,51.90
2017-05-26T02:20:38.207Z,52.20
2017-05-26T02:23:05.975Z,52.00
2017-05-26T02:25:32.623Z,52.50
2017-05-26T02:27:59.647Z,53.40
2017-05-26T02:30:26.282Z,52.90
2017-05-26T02:32:52.954Z,52.50
2017-05-26T02:35:19.598Z,52.70
2017-05-26T02:37:45.873Z,52.70
2017-05-26T02:45:09.687Z,52.60
2017-05-26T02:47:36.732Z,53.50
2017-05-26T02:50:04.491Z,52.80
2017-05-26T02:52:31.193Z,53.40
2017-05-26T02:54:58.602Z,53.10
2017-05-26T02:57:25.994Z,53.10
2017-05-26T02:59:53.051Z,54.00
2017-05-26T03:02:20.072Z,54.00
2017-05-26T03:04:47.091Z,53.30
2017-05-26T03:09:42.159Z,53.30
2017-05-26T03:14:37.169Z,53.30
2017-05-26T03:17:04.187Z,53.80
2017-05-26T03:19:31.198Z,53.90
2017-05-26T03:21:58.261Z,54.00
2017-05-26T03:24:25.632Z,53.20
2017-05-26T03:26:52.302Z,53.60
2017-05-26T03:29:19.313Z,53.20
2017-05-26T03:31:46.364Z,54.20
2017-05-26T03:36:41.044Z,53.40
2017-05-26T03:39:08.058Z,53.80
2017-05-26T03:41:35.114Z,53.90
2017-05-26T03:48:57.418Z,53.20
2017-05-26T03:51:24.450Z,54.10
2017-05-26T03:53:51.468Z,53.80
2017-05-26T03:56:18.484Z,53.80
2017-05-26T03:58:45.130Z,53.20
2017-05-26T04:01:12.154Z,53.10
2017-05-26T04:03:39.179Z,53.60
2017-05-26T04:06:06.194Z,53.30
2017-05-26T04:08:33.319Z,54.00
2017-05-26T04:10:59.994Z,53.30
2017-05-26T04:13:27.010Z,53.10
2017-05-26T04:15:54.014Z,53.20
2017-05-26T04:20:49.021Z,52.80
2017-05-26T04:23:15.690Z,51.50
2017-05-26T04:25:42.707Z,52.50
2017-05-26T04:28:09.735Z,52.40
2017-05-26T04:30:36.798Z,52.40
2017-05-26T04:33:03.832Z,51.30
2017-05-26T04:35:30.840Z,52.40
2017-05-26T04:37:57.896Z,53.20
2017-05-26T04:40:25.639Z,52.10
2017-05-26T04:42:53.402Z,52.30
2017-05-26T04:45:20.436Z,52.70
2017-05-26T04:47:47.453Z,52.70
2017-05-26T04:52:42.231Z,51.60
2017-05-26T04:55:09.288Z,52.10
2017-05-26T04:57:35.923Z,51.90
2017-05-26T05:00:03.335Z,49.40
2017-05-26T05:02:30.346Z,47.50
2017-05-26T05:04:57.390Z,45.30
2017-05-26T05:07:24.422Z,43.20
2017-05-26T05:09:51.819Z,41.20
2017-05-26T05:12:19.195Z,40.50
2017-05-26T05:14:46.195Z,36.60
2017-05-26T05:19:41.237Z,29.90
2017-05-26T05:27:04.243Z,25.80
2017-05-26T05:29:31.268Z,24.00
2017-05-26T05:31:58.296Z,24.10
2017-05-26T05:34:26.090Z,23.20
2017-05-26T05:36:53.134Z,20.40
2017-05-26T05:39:20.150Z,20.70
2017-05-26T05:41:47.170Z,21.90
2017-05-26T05:46:41.453Z,23.50
2017-05-26T05:49:09.370Z,26.10
2017-05-26T05:51:36.403Z,29.20
2017-05-26T05:56:31.071Z,33.40
2017-05-26T05:58:58.097Z,36.40
2017-05-26T06:03:52.776Z,37.30
2017-05-26T06:06:19.799Z,39.70
2017-05-26T06:08:47.187Z,39.60
2017-05-26T06:13:42.217Z,40.30
2017-05-26T06:16:09.319Z,41.00
2017-05-26T06:18:36.385Z,42.50
2017-05-26T06:21:03.399Z,45.30
2017-05-26T06:23:31.162Z,43.10
2017-05-26T06:28:25.824Z,41.80
2017-05-26T06:30:52.919Z,45.00
2017-05-26T06:33:19.963Z,45.00
2017-05-26T06:38:15.718Z,45.00
2017-05-26T06:40:42.765Z,44.50
2017-05-26T06:43:09.813Z,45.20
2017-05-26T06:45:37.214Z,45.40
2017-05-26T06:48:04.313Z,46.30
2017-05-26T06:50:31.342Z,45.60
2017-05-26T06:52:58.814Z,45.10
2017-05-26T06:55:25.862Z,45.90
2017-05-26T07:00:20.969Z,44.20
2017-05-26T07:02:47.664Z,44.10
2017-05-26T07:07:43.603Z,43.20
2017-05-26T07:10:10.665Z,43.50
2017-05-26T07:12:38.148Z,43.40
2017-05-26T07:15:04.432Z,44.00
2017-05-26T07:17:31.846Z,43.10
2017-05-26T07:19:58.526Z,44.50
2017-05-26T07:22:25.913Z,43.40
2017-05-26T07:24:52.566Z,43.80
2017-05-26T07:32:15.974Z,43.80
2017-05-26T07:34:42.986Z,43.90
2017-05-26T07:37:10.748Z,42.00
2017-05-26T07:39:37.782Z,44.10
2017-05-26T07:42:04.785Z,42.20
2017-05-26T07:44:31.850Z,40.80
2017-05-26T07:46:58.948Z,42.30
2017-05-26T07:49:25.994Z,41.60
2017-05-26T07:54:21.111Z,43.40
2017-05-26T07:56:48.198Z,42.00
2017-05-26T07:59:15.994Z,41.60
2017-05-26T08:11:35.122Z,39.90
2017-05-26T08:21:25.789Z,38.80
2017-05-26T08:23:53.684Z,39.40
2017-05-26T08:26:21.073Z,39.70
2017-05-26T08:28:48.104Z,38.90
2017-05-26T08:33:42.390Z,38.50
2017-05-26T08:36:09.428Z,38.90
2017-05-26T08:38:36.445Z,39.40
2017-05-26T08:41:03.560Z,39.40
2017-05-26T08:45:59.689Z,36.30
2017-05-26T08:48:26.694Z,35.20
2017-05-26T08:50:54.123Z,34.60
2017-05-26T08:53:21.162Z,36.40
2017-05-26T08:55:48.907Z,36.00
2017-05-26T08:58:16.666Z,36.70
2017-05-26T09:05:40.514Z,35.20
2017-05-26T09:08:07.530Z,36.20
2017-05-26T09:10:34.414Z,35.60
2017-05-26T09:13:01.066Z,34.90
2017-05-26T09:15:28.293Z,35.00
2017-05-26T09:17:55.546Z,34.90
2017-05-26T09:20:22.751Z,35.80
2017-05-26T09:22:49.979Z,33.40
2017-05-26T09:27:45.583Z,34.40
2017-05-26T09:30:13.147Z,33.40
2017-05-26T09:35:08.362Z,33.40
2017-05-26T09:37:35.508Z,37.50
2017-05-26T09:40:02.318Z,33.30
2017-05-26T09:42:30.290Z,36.50
2017-05-26T09:44:57.163Z,32.60
2017-05-26T09:49:51.993Z,32.40
2017-05-26T09:52:19.658Z,31.00
2017-05-26T09:54:46.878Z,31.20
2017-05-26T09:57:14.148Z,30.30
2017-05-26T09:59:41.405Z,30.00
2017-05-26T10:07:05.874Z,27.10
2017-05-26T10:09:33.122Z,27.80
2017-05-26T10:12:00.354Z,27.10
2017-05-26T10:14:27.980Z,26.50
2017-05-26T10:16:54.513Z,26.60
2017-05-26T10:21:49.955Z,27.50
2017-05-26T10:24:17.243Z,25.50
2017-05-26T10:26:44.544Z,26.80
2017-05-26T10:29:11.791Z,25.60
2017-05-26T10:31:39.830Z,26.50
2017-05-26T10:36:35.661Z,30.10
2017-05-26T10:39:02.605Z,24.80
2017-05-26T10:41:29.527Z,24.00
2017-05-26T10:43:56.781Z,24.30
2017-05-26T10:48:52.679Z,25.00
2017-05-26T10:51:20.106Z,25.30
2017-05-26T10:53:47.482Z,24.70
2017-05-26T10:56:15.479Z,27.40
2017-05-26T10:58:42.733Z,24.70
2017-05-26T11:01:10.754Z,28.60
2017-05-26T11:08:34.067Z,22.30
2017-05-26T11:11:00.743Z,23.40
2017-05-26T11:13:27.382Z,23.20
2017-05-26T11:15:54.633Z,22.30
2017-05-26T11:18:21.874Z,23.30
2017-05-26T11:20:49.121Z,25.20
2017-05-26T11:23:15.414Z,23.40
2017-05-26T11:28:10.824Z,21.60
2017-05-26T11:30:38.079Z,22.70
2017-05-26T11:33:04.973Z,23.90
2017-05-26T11:40:28.278Z,22.50
2017-05-26T11:42:56.069Z,21.80
2017-05-26T11:45:23.677Z,22.30
2017-05-26T11:50:19.822Z,22.00
2017-05-26T11:52:46.876Z,24.00
2017-05-26T11:55:14.117Z,22.90
2017-05-26T11:57:40.994Z,21.70
2017-05-26T12:00:08.255Z,22.20
2017-05-26T12:02:35.566Z,23.20
2017-05-26T12:05:03.590Z,22.00
2017-05-26T12:09:58.891Z,22.80
2017-05-26T12:12:26.294Z,22.10
2017-05-26T12:17:22.093Z,21.80
2017-05-26T12:19:49.478Z,21.90
2017-05-26T12:22:16.499Z,22.60
2017-05-26T12:24:43.597Z,22.40
2017-05-26T12:27:10.242Z,21.80
2017-05-26T12:29:37.638Z,21.70
2017-05-26T12:34:32.665Z,20.90
2017-05-26T12:41:56.478Z,20.70
2017-05-26T12:44:23.761Z,21.60
2017-05-26T12:46:51.105Z,25.40
2017-05-26T12:49:18.394Z,21.30
2017-05-26T12:51:46.394Z,21.10
2017-05-26T12:54:14.405Z,22.50
2017-05-26T12:56:41.446Z,22.60
2017-05-26T12:59:08.567Z,21.10
2017-05-26T13:01:35.818Z,21.50
2017-05-26T13:04:03.819Z,20.10
2017-05-26T13:06:31.594Z,21.00
2017-05-26T13:11:26.965Z,20.00
2017-05-26T13:16:21.615Z,21.30
2017-05-26T13:21:16.662Z,22.20
2017-05-26T13:23:44.502Z,20.60
2017-05-26T13:26:11.882Z,20.10
2017-05-26T13:28:39.113Z,21.30
2017-05-26T13:33:34.403Z,21.80
2017-05-26T13:36:02.079Z,21.50
2017-05-26T13:40:56.841Z,22.20
2017-05-26T13:45:51.869Z,20.90
2017-05-26T13:48:18.899Z,21.80
2017-05-26T13:50:45.944Z,21.60
2017-05-26T13:53:12.974Z,21.90
2017-05-26T13:55:40.245Z,22.70
2017-05-26T13:58:07.862Z,22.40
2017-05-26T14:00:35.134Z,22.90
2017-05-26T14:03:02.396Z,23.60
2017-05-26T14:05:30.406Z,23.60
2017-05-26T14:07:57.682Z,23.30
2017-05-26T14:12:53.739Z,22.70
2017-05-26T14:15:20.400Z,22.80
2017-05-26T14:17:47.798Z,22.80
2017-05-26T14:20:14.805Z,22.40
2017-05-26T14:22:41.078Z,22.70
2017-05-26T14:25:09.026Z,22.40
2017-05-26T14:27:36.438Z,22.50
2017-05-26T14:30:03.462Z,23.20
2017-05-26T14:34:59.125Z,22.20
2017-05-26T14:37:26.131Z,24.20
2017-05-26T14:39:53.150Z,23.20
2017-05-26T14:44:47.840Z,25.30
2017-05-26T14:47:15.599Z,23.20
2017-05-26T14:49:42.623Z,22.50
2017-05-26T14:52:10.403Z,23.30
2017-05-26T14:54:38.165Z,23.10
2017-05-26T14:57:05.187Z,23.60
2017-05-26T14:59:32.217Z,23.90
2017-05-26T15:04:28.010Z,22.90
2017-05-26T15:06:55.041Z,24.20
2017-05-26T15:09:22.057Z,24.20
2017-05-26T15:16:45.530Z,23.80
2017-05-26T15:19:12.550Z,24.10
2017-05-26T15:21:39.194Z,25.10
2017-05-26T15:24:06.245Z,25.10
2017-05-26T15:26:33.286Z,24.10
2017-05-26T15:29:00.316Z,24.50
2017-05-26T15:31:28.090Z,24.70
2017-05-26T15:33:55.121Z,24.90
2017-05-26T15:36:22.190Z,24.00
2017-05-26T15:38:49.239Z,24.60
2017-05-26T15:41:16.490Z,24.30
2017-05-26T15:46:12.480Z,24.30
2017-05-26T15:48:39.503Z,23.70
2017-05-26T15:51:06.560Z,24.50
2017-05-26T15:53:33.636Z,25.00
2017-05-26T15:58:29.344Z,24.70
2017-05-26T16:00:57.108Z,24.10
2017-05-26T16:03:23.782Z,23.80
2017-05-26T16:05:50.830Z,24.40
2017-05-26T16:08:17.864Z,25.10
2017-05-26T16:10:44.886Z,25.80
2017-05-26T16:13:11.905Z,25.10
2017-05-26T16:18:07.282Z,24.70
2017-05-26T16:20:34.311Z,24.60
2017-05-26T16:23:01.335Z,24.50
2017-05-26T16:25:28.366Z,25.00
2017-05-26T16:27:55.764Z,24.70
2017-05-26T16:30:22.787Z,25.20
2017-05-26T16:32:49.809Z,25.00
2017-05-26T16:35:16.831Z,25.30
2017-05-26T16:37:43.714Z,24.90
2017-05-26T16:40:11.691Z,24.50
2017-05-26T16:42:38.714Z,25.10
2017-05-26T16:45:05.970Z,24.80
2017-05-26T16:50:01.590Z,25.00
2017-05-26T16:52:28.654Z,25.50
2017-05-26T16:54:55.311Z,25.20
2017-05-26T16:57:22.536Z,25.20
2017-05-26T16:59:49.449Z,25.00
2017-05-26T17:02:17.038Z,26.60
2017-05-26T17:04:44.737Z,25.60
2017-05-26T17:07:11.610Z,26.60
2017-05-26T17:09:38.535Z,25.70
2017-05-26T17:12:06.529Z,26.00
2017-05-26T17:14:33.780Z,27.20
2017-05-26T17:17:01.404Z,27.00
2017-05-26T17:21:56.263Z,26.00
2017-05-26T17:24:23.306Z,26.50
2017-05-26T17:26:50.556Z,26.40
2017-05-26T17:29:17.422Z,25.70
2017-05-26T17:31:44.755Z,27.00
2017-05-26T17:34:11.683Z,26.40
2017-05-26T17:36:38.920Z,26.90
2017-05-26T17:39:06.984Z,25.90
2017-05-26T17:41:34.323Z,26.50
2017-05-26T17:44:01.212Z,26.80
2017-05-26T17:48:56.506Z,27.30
2017-05-26T17:53:51.927Z,26.60
2017-05-26T17:56:18.972Z,26.70
2017-05-26T18:03:44.132Z,26.70
2017-05-26T18:11:07.347Z,26.90
2017-05-26T18:13:35.111Z,26.90
2017-05-26T18:16:02.138Z,27.70
2017-05-26T18:23:25.256Z,28.10
2017-05-26T18:28:20.666Z,27.20
2017-05-26T18:30:48.147Z,27.70
2017-05-26T18:38:12.263Z,27.30
2017-05-26T18:40:39.131Z,27.20
2017-05-26T18:43:06.391Z,27.10
2017-05-26T18:48:01.862Z,28.20
2017-05-26T18:52:57.367Z,27.70
2017-05-26T18:55:24.640Z,28.10
2017-05-26T18:57:51.540Z,27.70
2017-05-26T19:02:46.961Z,28.10
2017-05-26T19:05:14.230Z,27.90
2017-05-26T19:07:41.895Z,27.70
2017-05-26T19:12:37.422Z,28.70
2017-05-26T19:15:04.727Z,28.60
2017-05-26T19:17:31.977Z,28.40
2017-05-26T19:24:55.474Z,28.70
2017-05-26T19:32:19.278Z,28.60
2017-05-26T19:37:14.797Z,28.70
2017-05-26T19:39:41.883Z,28.70
2017-05-26T19:42:08.990Z,29.50
2017-05-26T19:44:36.566Z,30.10
2017-05-26T19:47:03.393Z,29.70
2017-05-26T19:49:30.093Z,29.40
2017-05-26T19:54:25.432Z,30.10
2017-05-26T19:56:59.171Z,29.90
2017-05-26T19:59:26.305Z,30.70
2017-05-26T20:01:53.497Z,30.10
2017-05-26T20:04:20.583Z,30.10
2017-05-26T20:06:48.518Z,30.20
2017-05-26T20:09:16.544Z,30.10
2017-05-26T20:16:41.618Z,30.10
2017-05-26T20:24:06.090Z,31.90
2017-05-26T20:26:32.978Z,30.80
2017-05-26T20:29:00.113Z,31.60
2017-05-26T20:33:56.286Z,31.20
2017-05-26T20:41:19.815Z,32.10
2017-05-26T20:43:46.818Z,31.50
2017-05-26T20:51:09.768Z,31.80
2017-05-26T20:56:05.064Z,33.00
2017-05-26T20:58:32.922Z,32.60
2017-05-26T21:03:28.466Z,33.80
2017-05-26T21:10:52.890Z,33.90
2017-05-26T21:18:17.161Z,34.20
2017-05-26T21:23:13.243Z,35.10
2017-05-26T21:25:40.110Z,35.10
2017-05-26T21:33:04.822Z,35.30
2017-05-26T21:35:32.311Z,35.30
2017-05-26T21:38:00.074Z,35.30
2017-05-26T21:40:27.990Z,35.30
2017-05-26T21:47:51.521Z,35.20
2017-05-26T21:50:18.561Z,35.20
2017-05-26T21:52:46.328Z,35.10
2017-05-26T21:55:12.629Z,35.20
2017-05-26T21:57:40.087Z,35.20
2017-05-26T22:00:07.559Z,35.50
2017-05-26T22:02:34.629Z,35.50
2017-05-26T22:12:51.020Z,36.60
2017-05-26T22:25:30.835Z,36.10
2017-05-26T22:33:10.950Z,36.20
2017-05-26T22:38:43.933Z,36.50
2017-05-26T22:41:11.459Z,36.30
2017-05-26T22:46:10.273Z,36.80
2017-05-26T22:51:06.130Z,36.70
2017-05-26T22:58:30.315Z,37.40
2017-05-26T23:00:58.001Z,37.50
2017-05-26T23:05:54.292Z,38.10
2017-05-26T23:13:18.385Z,38.60
2017-05-26T23:18:14.223Z,38.50
2017-05-26T23:23:10.245Z,38.50
2017-05-26T23:30:34.439Z,39.00
2017-05-26T23:33:02.486Z,38.70
2017-05-26T23:37:58.751Z,39.10
2017-05-26T23:40:26.551Z,39.20
2017-05-26T23:47:50.343Z,39.60
2017-05-26T23:50:18.406Z,39.80
2017-05-26T23:55:14.242Z,40.40
2017-05-26T23:57:41.524Z,40.10
